Time;durP1;ratioP1;P1;durP2;ratioP2;P2;SDS_P1;SDS_P2;PMS_P1;PMS_P2;Temp;Humidity;BMP_temperature;BMP_pressure;BME280_temperature;BME280_humidity;BME280_pressure;Samples;Min_cycle;Max_cycle;Signal;HPM_P1;HPM_P2
2023/03/25 00:01:37;;;;;;;20.60;12.05;;;;;;;11.42;49.74;94687.72;5023848;28;20183;-73
2023/03/25 00:04:03;;;;;;;20.27;12.32;;;;;;;11.36;49.39;94688.75;5024077;28;20026;-75
2023/03/25 00:06:30;;;;;;;16.13;11.52;;;;;;;11.34;49.64;94689.16;5025074;28;20048;-73
2023/03/25 00:08:55;;;;;;;19.15;11.93;;;;;;;11.31;49.89;94692.06;5026198;28;20511;-73
2023/03/25 00:11:21;;;;;;;16.92;11.85;;;;;;;11.32;49.75;94680.59;5006337;28;20029;-75
2023/03/25 00:13:47;;;;;;;21.83;12.40;;;;;;;11.21;49.91;94669.22;5024871;28;20110;-73
2023/03/25 00:16:14;;;;;;;19.48;11.23;;;;;;;11.21;50.17;94685.72;5023147;28;20083;-73
2023/03/25 00:18:39;;;;;;;17.00;11.73;;;;;;;11.16;50.18;94676.03;5023944;28;20115;-74
2023/03/25 00:21:09;;;;;;;18.77;11.38;;;;;;;11.14;50.22;94672.22;5023709;28;20100;-74
2023/03/25 00:23:35;;;;;;;20.23;11.77;;;;;;;11.16;50.21;94675.28;5023338;28;20373;-74
2023/03/25 00:26:01;;;;;;;15.10;10.45;;;;;;;11.09;50.34;94659.03;5007719;28;20033;-74
2023/03/25 00:28:32;;;;;;;17.67;11.82;;;;;;;11.08;50.53;94654.75;5024261;28;20037;-74
2023/03/25 00:31:02;;;;;;;16.55;11.15;;;;;;;11.05;50.75;94669.38;5024615;28;20053;-74
2023/03/25 00:33:28;;;;;;;19.05;11.75;;;;;;;11.03;50.62;94663.56;5023122;28;20542;-74
2023/03/25 00:35:58;;;;;;;20.65;11.90;;;;;;;11.02;50.79;94671.06;5023939;28;20097;-74
2023/03/25 00:38:32;;;;;;;19.67;11.52;;;;;;;11.01;51.07;94655.78;5023432;28;20033;-74
2023/03/25 00:40:58;;;;;;;18.20;12.30;;;;;;;11.03;51.15;94663.56;5023088;28;20033;-74
2023/03/25 00:43:23;;;;;;;15.38;11.10;;;;;;;11.02;51.15;94664.78;5023868;28;20025;-73
2023/03/25 00:45:49;;;;;;;17.45;11.75;;;;;;;10.99;50.61;94655.44;5023944;28;20105;-73
2023/03/25 00:48:14;;;;;;;16.00;10.85;;;;;;;10.98;51.10;94664.13;5025346;28;20064;-73
2023/03/25 00:50:40;;;;;;;14.98;11.07;;;;;;;10.90;51.09;94653.38;5023573;28;20098;-74
2023/03/25 00:53:07;;;;;;;14.82;10.85;;;;;;;10.89;51.22;94640.81;5024023;28;20065;-73
2023/03/25 00:55:32;;;;;;;16.98;11.10;;;;;;;10.90;51.27;94652.63;5024291;28;20320;-74
2023/03/25 00:57:57;;;;;;;17.48;11.48;;;;;;;10.89;51.34;94645.56;5024238;28;20034;-73
2023/03/25 01:00:23;;;;;;;15.93;11.10;;;;;;;10.83;51.05;94637.13;5024770;28;20100;-73
2023/03/25 01:02:52;;;;;;;13.82;9.73;;;;;;;10.74;51.32;94630.78;5022362;28;20037;-73
2023/03/25 01:05:20;;;;;;;15.50;11.05;;;;;;;10.74;51.44;94639.81;5024912;28;20026;-74
2023/03/25 01:07:48;;;;;;;15.50;10.20;;;;;;;10.76;51.47;94642.88;5023384;28;20013;-74
2023/03/25 01:10:14;;;;;;;14.73;10.15;;;;;;;10.76;51.48;94631.88;5025079;28;20030;-74
2023/03/25 01:12:39;;;;;;;16.33;10.50;;;;;;;10.74;51.42;94634.31;5022656;28;20076;-74
2023/03/25 01:15:05;;;;;;;17.05;11.65;;;;;;;10.75;51.45;94641.34;5022974;28;20117;-74
2023/03/25 01:17:30;;;;;;;17.02;10.95;;;;;;;10.71;51.39;94626.94;5022925;28;20384;-74
2023/03/25 01:19:56;;;;;;;15.00;10.50;;;;;;;10.68;51.54;94627.06;5023924;28;20021;-73
2023/03/25 01:22:21;;;;;;;16.13;10.68;;;;;;;10.65;51.65;94617.72;5023405;28;20044;-73
2023/03/25 01:24:47;;;;;;;15.00;10.25;;;;;;;10.62;51.74;94621.38;5023272;28;20033;-74
2023/03/25 01:27:12;;;;;;;15.00;10.88;;;;;;;10.63;51.39;94609.91;5025273;28;20021;-74
2023/03/25 01:29:38;;;;;;;15.75;11.35;;;;;;;10.63;51.36;94606.41;5021872;28;20057;-74
2023/03/25 01:32:03;;;;;;;15.13;10.30;;;;;;;10.58;51.59;94610.47;5023209;28;20440;-74
2023/03/25 01:34:32;;;;;;;16.45;11.15;;;;;;;10.59;51.70;94605.75;5022853;28;20112;-74
2023/03/25 01:36:58;;;;;;;15.68;10.13;;;;;;;10.54;51.66;94600.81;5022608;28;20630;-74
2023/03/25 01:39:24;;;;;;;18.27;10.60;;;;;;;10.53;51.74;94593.78;5024557;28;20071;-74
2023/03/25 01:41:50;;;;;;;15.52;10.65;;;;;;;10.56;51.88;94590.16;5023260;28;20033;-75
2023/03/25 01:44:19;;;;;;;15.15;11.05;;;;;;;10.47;51.78;94587.31;5024978;28;20021;-74
2023/03/25 01:46:48;;;;;;;15.48;10.88;;;;;;;10.45;51.92;94590.53;5023544;28;20029;-74
2023/03/25 01:49:25;;;;;;;16.13;11.13;;;;;;;10.47;52.00;94601.06;5024438;28;20113;-73
2023/03/25 01:51:54;;;;;;;14.20;10.68;;;;;;;10.44;52.19;94599.97;5022493;28;20037;-74
2023/03/25 01:54:20;;;;;;;18.33;11.70;;;;;;;10.37;52.20;94603.72;5022104;28;20484;-74
2023/03/25 01:56:47;;;;;;;16.60;10.90;;;;;;;10.30;52.09;94587.47;5022936;28;20046;-74
2023/03/25 01:59:15;;;;;;;14.25;11.27;;;;;;;10.32;52.19;94593.31;5021784;28;20076;-74
2023/03/25 02:01:44;;;;;;;13.88;10.18;;;;;;;10.32;52.21;94596.06;5023304;28;20591;-73
2023/03/25 02:04:11;;;;;;;13.73;11.00;;;;;;;10.31;52.39;94591.75;5025987;28;20083;-74
2023/03/25 02:06:45;;;;;;;18.15;10.00;;;;;;;10.28;52.39;94581.66;5026505;28;20025;-73
2023/03/25 02:09:14;;;;;;;14.95;9.45;;;;;;;10.28;52.30;94591.88;5009653;28;20029;-74
2023/03/25 02:11:39;;;;;;;13.60;10.15;;;;;;;10.23;52.49;94584.97;5025728;28;20018;-73
2023/03/25 02:14:12;;;;;;;13.93;10.05;;;;;;;10.16;52.42;94587.16;5026820;28;20021;-73
2023/03/25 02:16:56;;;;;;;17.08;10.30;;;;;;;10.17;52.21;94580.44;5025036;28;20018;-75
2023/03/25 02:20:08;;;;;;;12.35;9.77;;;;;;;10.13;52.10;94580.56;5028127;28;20074;-74
2023/03/25 02:22:56;;;;;;;15.82;10.35;;;;;;;10.05;52.29;94582.00;5017326;28;20072;-72
2023/03/25 02:25:21;;;;;;;13.15;9.82;;;;;;;10.01;52.43;94578.59;5015769;28;20050;-73
2023/03/25 02:28:00;;;;;;;17.40;9.52;;;;;;;9.99;52.74;94581.78;5027983;28;20037;-73
2023/03/25 02:30:34;;;;;;;15.13;9.95;;;;;;;9.93;52.87;94572.59;5025329;28;20040;-73
2023/03/25 02:33:00;;;;;;;12.88;9.18;;;;;;;9.88;52.78;94575.13;5027266;28;20036;-73
2023/03/25 02:35:36;;;;;;;14.35;9.30;;;;;;;9.87;52.64;94577.09;5027424;28;20025;-73
2023/03/25 02:38:39;;;;;;;13.73;9.23;;;;;;;9.82;52.61;94574.91;5026246;28;20103;-74
2023/03/25 02:41:15;;;;;;;13.57;9.90;;;;;;;9.74;52.95;94579.06;5026248;28;20037;-74
2023/03/25 02:43:47;;;;;;;12.23;9.30;;;;;;;9.73;52.84;94580.28;5026873;28;20026;-74
2023/03/25 02:46:16;;;;;;;16.25;10.68;;;;;;;9.67;52.80;94566.31;5025347;28;20139;-73
2023/03/25 02:49:00;;;;;;;15.30;10.18;;;;;;;9.69;52.92;94571.38;5009430;28;20159;-73
2023/03/25 02:51:31;;;;;;;13.73;9.57;;;;;;;9.73;53.08;94575.53;5024157;28;20463;-73
2023/03/25 02:54:01;;;;;;;12.07;9.15;;;;;;;9.70;53.15;94570.94;5026037;28;20033;-73
2023/03/25 02:56:28;;;;;;;12.82;10.15;;;;;;;9.73;53.04;94570.06;5025048;28;20530;-73
2023/03/25 02:58:54;;;;;;;12.43;9.73;;;;;;;9.66;52.95;94558.53;5025096;28;20572;-73
2023/03/25 03:01:25;;;;;;;13.82;10.10;;;;;;;9.70;53.12;94559.22;5025570;28;20032;-73
2023/03/25 03:03:51;;;;;;;13.98;9.27;;;;;;;9.71;53.11;94555.25;5024583;28;20021;-73
2023/03/25 03:06:17;;;;;;;17.02;10.38;;;;;;;9.69;53.19;94557.66;5026031;28;20021;-73
2023/03/25 03:09:00;;;;;;;18.83;10.23;;;;;;;9.68;53.00;94553.38;5024192;28;20036;-73
2023/03/25 03:11:57;;;;;;;13.35;9.82;;;;;;;9.64;53.09;94552.72;5025803;28;20112;-73
2023/03/25 03:14:55;;;;;;;13.38;9.82;;;;;;;9.58;52.94;94552.50;5024478;28;20137;-74
2023/03/25 03:17:28;;;;;;;12.98;9.40;;;;;;;9.56;52.99;94565.88;5007620;28;20443;-73
2023/03/25 03:20:24;;;;;;;13.10;9.75;;;;;;;9.50;53.16;94573.13;5025464;28;20416;-73
2023/03/25 03:22:52;;;;;;;15.30;9.95;;;;;;;9.47;53.32;94579.50;5026275;28;20022;-75
2023/03/25 03:25:21;;;;;;;11.48;9.20;;;;;;;9.43;53.48;94567.88;5025776;28;20452;-73
2023/03/25 03:28:09;;;;;;;16.35;10.52;;;;;;;9.38;53.34;94563.69;5026659;28;20488;-73
2023/03/25 03:30:43;;;;;;;16.98;10.43;;;;;;;9.35;53.58;94559.09;5025321;28;20021;-74
2023/03/25 03:33:20;;;;;;;13.63;10.43;;;;;;;9.32;53.46;94568.94;5025197;28;20239;-74
2023/03/25 03:36:09;;;;;;;13.77;9.43;;;;;;;9.31;53.63;94574.88;5024668;28;20025;-72
2023/03/25 03:38:39;;;;;;;17.25;11.23;;;;;;;9.26;53.79;94581.66;5023662;28;20033;-73
2023/03/25 03:41:08;;;;;;;14.80;10.35;;;;;;;9.20;53.89;94580.69;5025335;28;20033;-74
2023/03/25 03:43:38;;;;;;;13.93;9.63;;;;;;;9.18;53.87;94572.13;5023774;28;20550;-73
2023/03/25 03:46:06;;;;;;;14.30;10.85;;;;;;;9.17;54.09;94565.06;5026231;28;20515;-74
2023/03/25 03:48:43;;;;;;;15.00;10.10;;;;;;;9.19;54.06;94575.63;5024406;28;20029;-73
2023/03/25 03:51:23;;;;;;;15.30;9.63;;;;;;;9.15;53.98;94567.50;5023766;28;20022;-73
2023/03/25 03:53:59;;;;;;;16.42;10.18;;;;;;;9.13;54.10;94571.91;5008701;28;20116;-74
2023/03/25 03:56:31;;;;;;;17.38;10.55;;;;;;;9.08;54.17;94567.72;5023386;28;20064;-73
2023/03/25 03:58:58;;;;;;;19.00;11.07;;;;;;;9.03;54.15;94569.00;5024691;28;20044;-73
2023/03/25 04:01:46;;;;;;;15.65;10.00;;;;;;;9.01;54.14;94571.44;5024287;28;20108;-73
2023/03/25 04:04:25;;;;;;;18.70;10.90;;;;;;;8.98;54.35;94577.00;5023554;28;20036;-73
2023/03/25 04:07:09;;;;;;;14.98;10.50;;;;;;;8.91;54.76;94569.75;5008434;28;20024;-73
2023/03/25 04:09:53;;;;;;;;;;;;;;;8.90;54.58;94570.97;5024022;28;20064;-73
2023/03/25 04:12:25;;;;;;;17.42;9.63;;;;;;;8.82;54.64;94575.09;5024292;28;19913;-74
2023/03/25 04:14:55;;;;;;;15.77;9.95;;;;;;;8.79;55.09;94575.97;5025520;28;20026;-73
2023/03/25 04:17:24;;;;;;;14.25;9.57;;;;;;;8.73;55.05;94573.00;5023436;28;20357;-75
2023/03/25 04:19:52;;;;;;;18.10;11.60;;;;;;;8.70;54.94;94576.59;5026607;28;20029;-74
2023/03/25 04:22:19;;;;;;;15.07;10.00;;;;;;;8.70;54.83;94568.38;5024286;28;20034;-73
2023/03/25 04:24:48;;;;;;;16.45;11.02;;;;;;;8.69;54.85;94564.09;5025929;28;20028;-73
2023/03/25 04:27:15;;;;;;;18.08;10.27;;;;;;;8.69;55.14;94566.84;5024336;28;20030;-74
2023/03/25 04:29:40;;;;;;;15.75;10.60;;;;;;;8.69;55.13;94572.31;5023536;28;20071;-74
2023/03/25 04:32:07;;;;;;;14.88;11.07;;;;;;;8.69;54.93;94569.56;5024974;28;20068;-74
2023/03/25 04:34:32;;;;;;;20.05;11.57;;;;;;;8.69;55.06;94572.31;5006844;28;20025;-73
2023/03/25 04:36:58;;;;;;;19.55;11.45;;;;;;;8.66;55.12;94566.91;5025875;28;20032;-74
2023/03/25 04:39:24;;;;;;;18.08;10.93;;;;;;;8.68;55.08;94575.50;5006226;28;20028;-74
2023/03/25 04:41:52;;;;;;;17.92;11.82;;;;;;;8.68;55.13;94570.78;5024491;28;20123;-73
2023/03/25 04:44:20;;;;;;;19.33;11.65;;;;;;;8.66;55.16;94575.94;5024033;28;20079;-73
2023/03/25 04:46:45;;;;;;;18.30;10.98;;;;;;;8.67;55.16;94574.72;5023666;28;20029;-73
2023/03/25 04:49:18;;;;;;;19.25;12.63;;;;;;;8.68;55.33;94580.97;5024575;28;20541;-74
2023/03/25 04:51:43;;;;;;;21.98;11.50;;;;;;;8.67;55.30;94573.97;5006322;28;20021;-73
2023/03/25 04:54:10;;;;;;;16.58;11.82;;;;;;;8.68;55.39;94581.75;5025150;28;20342;-74
2023/03/25 04:56:36;;;;;;;20.00;11.00;;;;;;;8.64;55.28;94567.34;5022171;28;20107;-73
2023/03/25 04:59:03;;;;;;;17.05;11.75;;;;;;;8.69;55.35;94574.28;5024068;28;20455;-74
2023/03/25 05:01:31;;;;;;;19.15;11.60;;;;;;;8.70;55.36;94578.56;5022672;28;20456;-74
2023/03/25 05:04:06;;;;;;;26.08;12.07;;;;;;;8.72;55.40;94582.44;5023618;28;20462;-73
2023/03/25 05:06:40;;;;;;;20.02;11.88;;;;;;;8.71;55.33;94574.63;5023091;28;20057;-73
2023/03/25 05:09:09;;;;;;;16.63;11.57;;;;;;;8.76;55.14;94583.06;5006270;28;20030;-74
2023/03/25 05:11:35;;;;;;;19.58;11.40;;;;;;;8.77;55.11;94589.31;5023815;28;20487;-73
2023/03/25 05:14:01;;;;;;;17.75;11.75;;;;;;;8.82;55.10;94585.28;5021948;28;20793;-74
2023/03/25 05:16:27;;;;;;;19.02;12.27;;;;;;;8.82;55.10;94586.06;5007403;28;20030;-74
2023/03/25 05:18:52;;;;;;;18.45;11.82;;;;;;;8.86;54.94;94584.00;5022086;28;20051;-74
2023/03/25 05:21:18;;;;;;;15.30;10.57;;;;;;;8.93;54.94;94583.03;5024415;28;20504;-75
2023/03/25 05:23:43;;;;;;;17.48;11.25;;;;;;;8.92;55.22;94584.22;5024269;28;20112;-74
2023/03/25 05:26:11;;;;;;;13.63;10.70;;;;;;;8.94;55.24;94584.56;5022412;28;20017;-73
2023/03/25 05:28:37;;;;;;;17.73;11.90;;;;;;;9.01;55.26;94584.38;5023286;28;20476;-75
2023/03/25 05:31:07;;;;;;;19.58;11.55;;;;;;;9.10;54.90;94583.72;5022155;28;20026;-74
2023/03/25 05:33:33;;;;;;;19.98;12.07;;;;;;;9.11;54.94;94577.78;5025088;28;20425;-73
2023/03/25 05:35:58;;;;;;;21.83;12.10;;;;;;;9.18;55.06;94577.63;5023376;28;20021;-74
2023/03/25 05:38:24;;;;;;;18.38;12.38;;;;;;;9.23;54.88;94577.06;5024780;28;20503;-74
2023/03/25 05:40:49;;;;;;;16.10;11.50;;;;;;;9.32;55.00;94590.91;5028047;28;20029;-74
2023/03/25 05:43:15;;;;;;;23.25;13.02;;;;;;;9.36;54.64;94588.06;5026584;28;20025;-76
2023/03/25 05:45:41;;;;;;;24.05;13.80;;;;;;;9.42;54.58;94591.03;5027617;28;20025;-75
2023/03/25 05:48:07;;;;;;;24.35;14.13;;;;;;;9.51;54.63;94586.41;5009729;28;20026;-75
2023/03/25 05:50:33;;;;;;;19.50;13.02;;;;;;;9.61;54.28;94590.03;5027248;28;20075;-75
2023/03/25 05:52:59;;;;;;;25.85;15.07;;;;;;;9.68;54.26;94595.31;5008783;28;20416;-75
2023/03/25 05:55:24;;;;;;;22.92;13.85;;;;;;;9.71;54.25;94588.19;5027456;28;20514;-74
2023/03/25 05:57:50;;;;;;;23.98;13.73;;;;;;;9.81;54.13;94585.13;5009526;28;20060;-73
2023/03/25 06:00:20;;;;;;;26.27;13.70;;;;;;;9.88;53.89;94591.59;5026833;28;20021;-75
2023/03/25 06:02:47;;;;;;;19.80;14.10;;;;;;;9.92;53.43;94592.22;5026941;28;20053;-74
2023/03/25 06:05:13;;;;;;;21.35;15.02;;;;;;;10.01;53.62;94586.84;5025641;28;20029;-73
2023/03/25 06:07:41;;;;;;;28.73;15.77;;;;;;;10.07;53.51;94585.06;5027048;28;20064;-73
2023/03/25 06:10:09;;;;;;;26.30;15.25;;;;;;;10.16;53.29;94579.69;5025551;28;20669;-72
2023/03/25 06:12:37;;;;;;;22.73;15.25;;;;;;;10.26;53.31;94586.81;5027068;28;20411;-73
2023/03/25 06:15:08;;;;;;;19.80;14.23;;;;;;;10.38;52.77;94577.03;5025593;28;20064;-73
2023/03/25 06:17:37;;;;;;;24.88;14.27;;;;;;;10.42;52.99;94571.41;5026749;28;20029;-73
2023/03/25 06:20:10;;;;;;;23.60;14.20;;;;;;;10.48;53.04;94572.38;5010369;28;20376;-73
2023/03/25 06:22:41;;;;;;;29.40;15.52;;;;;;;10.55;52.90;94578.41;5027026;28;20028;-73
2023/03/25 06:25:08;;;;;;;22.42;14.95;;;;;;;10.68;52.84;94580.34;5027054;28;20453;-73
2023/03/25 06:27:33;;;;;;;22.45;15.00;;;;;;;10.78;51.88;94590.16;5026490;28;20029;-75
2023/03/25 06:30:00;;;;;;;23.27;14.10;;;;;;;10.90;52.17;94590.13;5027082;28;20411;-74
2023/03/25 06:32:26;;;;;;;21.98;15.60;;;;;;;10.94;52.08;94584.50;5026440;28;20212;-75
2023/03/25 06:34:51;;;;;;;26.55;15.45;;;;;;;11.03;51.62;94590.06;5026316;28;20134;-73
2023/03/25 06:37:17;;;;;;;28.33;17.27;;;;;;;11.15;51.90;94586.47;5027507;28;20024;-73
2023/03/25 06:39:48;;;;;;;28.05;17.02;;;;;;;11.24;51.87;94593.25;5026789;28;20508;-73
2023/03/25 06:42:14;;;;;;;29.05;18.50;;;;;;;11.32;51.77;94592.53;5027767;28;20029;-74
2023/03/25 06:44:39;;;;;;;29.67;18.10;;;;;;;11.46;51.54;94587.72;5024853;28;20036;-73
2023/03/25 06:47:05;;;;;;;27.58;18.60;;;;;;;11.52;51.60;94594.94;5028028;28;20527;-73
2023/03/25 06:49:31;;;;;;;30.13;18.38;;;;;;;11.61;51.58;94596.97;5025900;28;20065;-74
2023/03/25 06:51:57;;;;;;;32.08;18.67;;;;;;;11.68;51.91;94600.22;5027309;28;20100;-73
2023/03/25 06:54:22;;;;;;;30.77;17.98;;;;;;;11.83;51.44;94607.97;5025069;28;20419;-73
2023/03/25 06:56:48;;;;;;;29.67;17.02;;;;;;;11.94;51.10;94605.56;5026450;28;20049;-74
2023/03/25 06:59:13;;;;;;;33.38;19.95;;;;;;;12.01;51.04;94604.50;5026909;28;20025;-74
2023/03/25 07:01:40;;;;;;;27.50;18.88;;;;;;;12.11;50.73;94608.84;5024533;28;20024;-74
2023/03/25 07:04:05;;;;;;;29.05;18.45;;;;;;;12.21;50.37;94597.41;5026046;28;20557;-74
2023/03/25 07:06:30;;;;;;;26.20;17.33;;;;;;;12.33;50.28;94598.50;5025305;28;20021;-74
2023/03/25 07:08:56;;;;;;;26.50;17.33;;;;;;;12.43;49.92;94599.25;5026116;28;20108;-74
2023/03/25 07:11:27;;;;;;;24.95;16.60;;;;;;;12.51;49.66;94595.00;5024562;28;20053;-74
2023/03/25 07:13:53;;;;;;;25.05;14.60;;;;;;;12.52;49.88;94596.53;5025470;28;20037;-74
2023/03/25 07:16:22;;;;;;;21.40;13.63;;;;;;;12.50;49.83;94590.69;5025199;28;20112;-74
2023/03/25 07:18:49;;;;;;;19.95;14.18;;;;;;;12.57;49.89;94586.88;5024429;28;20488;-74
2023/03/25 07:21:15;;;;;;;20.77;14.27;;;;;;;12.81;49.37;94589.81;5025651;28;20029;-74
2023/03/25 07:23:40;;;;;;;24.75;15.00;;;;;;;12.85;49.33;94593.19;5023837;28;20641;-74
2023/03/25 07:26:06;;;;;;;27.05;14.85;;;;;;;12.91;49.21;94594.09;5027618;28;20413;-74
2023/03/25 07:28:31;;;;;;;25.45;14.77;;;;;;;13.06;49.01;94589.47;5025229;28;20041;-74
2023/03/25 07:30:57;;;;;;;25.58;15.23;;;;;;;13.13;48.71;94586.44;5026605;28;20018;-74
2023/03/25 07:33:22;;;;;;;23.55;13.95;;;;;;;13.24;48.33;94581.19;5024564;28;20033;-74
2023/03/25 07:35:48;;;;;;;27.05;14.60;;;;;;;13.39;47.84;94586.09;5024446;28;20026;-73
2023/03/25 07:38:13;;;;;;;25.38;14.52;;;;;;;13.52;47.79;94592.97;5026225;28;20025;-75
2023/03/25 07:40:39;;;;;;;21.10;15.23;;;;;;;13.62;47.70;94587.41;5023618;28;20013;-73
2023/03/25 07:43:05;;;;;;;20.98;13.60;;;;;;;13.89;47.15;94579.03;5026999;28;20067;-74
2023/03/25 07:45:30;;;;;;;20.98;14.13;;;;;;;14.00;46.93;94573.78;5024887;28;20083;-74
2023/03/25 07:47:55;;;;;;;28.25;16.63;;;;;;;14.15;46.52;94581.38;5026554;28;20048;-73
2023/03/25 07:50:22;;;;;;;26.20;13.55;;;;;;;14.37;46.02;94570.81;5024050;28;20067;-73
2023/03/25 07:52:47;;;;;;;22.00;13.40;;;;;;;14.53;45.83;94569.66;5024046;28;20484;-75
2023/03/25 07:55:13;;;;;;;23.02;13.75;;;;;;;14.72;45.54;94565.50;5025716;28;20041;-74
2023/03/25 07:57:40;;;;;;;25.13;17.92;;;;;;;14.95;45.20;94566.72;5024968;28;20033;-73
2023/03/25 08:00:06;;;;;;;24.13;15.30;;;;;;;15.19;44.89;94557.59;5026072;28;20017;-73
2023/03/25 08:02:32;;;;;;;26.20;14.95;;;;;;;15.33;44.13;94557.59;5023088;28;20056;-73
2023/03/25 08:04:57;;;;;;;22.60;13.90;;;;;;;15.55;43.74;94556.47;5026146;28;20495;-73
2023/03/25 08:07:22;;;;;;;23.83;14.77;;;;;;;15.75;43.27;94561.34;5023395;28;20125;-73
2023/03/25 08:09:48;;;;;;;23.35;14.43;;;;;;;15.91;42.98;94546.97;5024348;28;20408;-75
2023/03/25 08:12:13;;;;;;;26.88;15.52;;;;;;;16.23;42.41;94547.19;5025135;28;20029;-74
2023/03/25 08:14:39;;;;;;;20.70;14.60;;;;;;;16.43;41.68;94550.75;5025139;28;20028;-73
2023/03/25 08:17:05;;;;;;;26.83;15.15;;;;;;;16.68;41.04;94542.97;5025425;28;20454;-75
2023/03/25 08:19:31;;;;;;;21.33;14.60;;;;;;;16.91;40.83;94549.59;5023356;28;20040;-73
2023/03/25 08:21:57;;;;;;;23.40;14.73;;;;;;;17.13;40.54;94538.72;5024193;28;20029;-73
2023/03/25 08:24:23;;;;;;;21.60;15.02;;;;;;;17.36;40.28;94534.16;5024169;28;20108;-74
2023/03/25 08:26:49;;;;;;;20.40;13.65;;;;;;;17.49;39.17;94517.06;5024734;28;20152;-73
2023/03/25 08:29:16;;;;;;;22.52;13.93;;;;;;;17.83;38.91;94536.84;5023013;28;20112;-73
2023/03/25 08:31:45;;;;;;;19.38;13.75;;;;;;;17.93;38.70;94541.72;5024020;28;20025;-75
2023/03/25 08:34:11;;;;;;;19.05;14.00;;;;;;;18.16;38.10;94541.88;5007701;28;20095;-74
2023/03/25 08:36:38;;;;;;;17.85;13.15;;;;;;;18.45;37.33;94532.44;5023323;28;20476;-73
2023/03/25 08:39:08;;;;;;;22.33;13.43;;;;;;;18.63;37.37;94540.38;5025397;28;20167;-74
2023/03/25 08:41:34;;;;;;;18.38;13.02;;;;;;;18.84;36.94;94530.63;5022510;28;20083;-74
2023/03/25 08:43:59;;;;;;;17.75;13.10;;;;;;;19.03;36.49;94522.56;5024155;28;20025;-74
2023/03/25 08:46:25;;;;;;;18.27;12.80;;;;;;;19.26;36.17;94519.84;5022895;28;20021;-73
2023/03/25 08:48:50;;;;;;;19.08;11.73;;;;;;;19.59;35.95;94524.72;5025042;28;20036;-74
2023/03/25 08:51:16;;;;;;;20.38;12.48;;;;;;;19.86;35.08;94518.41;5022890;28;20029;-74
2023/03/25 08:53:42;;;;;;;22.48;12.43;;;;;;;20.14;34.46;94515.59;5006606;28;20036;-74
2023/03/25 08:56:09;;;;;;;21.63;13.52;;;;;;;20.29;34.61;94512.50;5024635;28;20111;-74
2023/03/25 08:58:34;;;;;;;21.38;12.80;;;;;;;20.61;33.75;94524.13;5023887;28;20703;-73
2023/03/25 09:01:01;;;;;;;17.23;11.82;;;;;;;21.00;32.89;94516.84;5025099;28;20025;-73
2023/03/25 09:03:26;;;;;;;16.67;12.13;;;;;;;21.43;32.42;94522.72;5023675;28;20029;-73
2023/03/25 09:05:52;;;;;;;18.05;12.27;;;;;;;21.81;31.54;94517.38;5007144;28;20121;-73
2023/03/25 09:08:18;;;;;;;14.38;12.10;;;;;;;22.21;30.76;94504.59;5024057;28;20028;-73
2023/03/25 09:10:44;;;;;;;17.38;11.07;;;;;;;22.67;30.39;94500.03;5023268;28;20526;-74
2023/03/25 09:13:09;;;;;;;17.38;11.68;;;;;;;23.03;29.37;94495.75;5023575;28;20034;-74
2023/03/25 09:15:35;;;;;;;15.50;10.52;;;;;;;23.36;29.39;94499.41;5022853;28;20037;-74
2023/03/25 09:18:01;;;;;;;22.55;10.75;;;;;;;23.52;28.79;94504.00;5023584;28;20468;-74
2023/03/25 09:20:26;;;;;;;16.58;11.75;;;;;;;23.74;28.36;94496.53;5023439;28;20021;-74
2023/03/25 09:22:52;;;;;;;17.38;11.55;;;;;;;24.10;27.45;94502.59;5023472;28;20107;-74
2023/03/25 09:25:17;;;;;;;18.02;11.77;;;;;;;24.32;27.37;94493.78;5022155;28;20163;-74
2023/03/25 09:27:43;;;;;;;14.77;10.70;;;;;;;24.50;26.89;94497.06;5023391;28;20029;-74
2023/03/25 09:30:09;;;;;;;18.02;11.82;;;;;;;24.47;27.36;94496.06;5021868;28;20041;-76
2023/03/25 09:32:34;;;;;;;17.17;9.70;;;;;;;24.92;26.57;94494.44;5005548;28;20041;-76
2023/03/25 09:35:00;;;;;;;16.58;9.45;;;;;;;25.41;25.95;94495.47;5006409;28;20041;-76
2023/03/25 09:37:26;;;;;;;14.82;7.65;;;;;;;25.86;25.19;94488.81;5005251;28;20116;-76
2023/03/25 09:39:51;;;;;;;15.23;7.55;;;;;;;26.24;25.04;94496.06;5023278;28;20036;-78
2023/03/25 09:42:41;;;;;;;15.15;8.77;;;;;;;26.25;25.40;94484.25;5021319;28;20025;-78
2023/03/25 09:45:19;;;;;;;14.35;8.68;;;;;;;26.37;24.87;94479.81;5022910;28;20120;-78
2023/03/25 09:47:54;;;;;;;11.90;7.90;;;;;;;26.41;24.36;94476.69;5006115;28;20103;-76
2023/03/25 09:50:20;;;;;;;12.65;8.13;;;;;;;26.36;24.02;94455.78;5021759;28;20488;-75
2023/03/25 09:53:01;;;;;;;16.27;8.20;;;;;;;26.53;23.61;94475.06;5023087;28;20078;-77
2023/03/25 09:55:31;;;;;;;12.63;7.57;;;;;;;26.82;22.90;94464.53;5021406;28;20472;-80
2023/03/25 09:58:02;;;;;;;6.75;4.97;;;;;;;26.88;22.25;94467.19;5022397;28;20028;-77
2023/03/25 10:00:28;;;;;;;9.77;4.85;;;;;;;27.05;22.48;94464.63;5035248;28;20444;-77
2023/03/25 10:03:22;;;;;;;10.68;4.50;;;;;;;27.21;22.15;94460.59;5043890;28;20026;-78
2023/03/25 10:06:09;;;;;;;15.98;7.93;;;;;;;27.44;21.17;94448.63;5000479;28;20034;-76
2023/03/25 10:09:12;;;;;;;10.77;5.57;;;;;;;27.85;20.60;94453.25;5001650;28;20034;-76
2023/03/25 10:11:41;;;;;;;14.25;6.80;;;;;;;28.47;20.03;94445.53;5002307;28;20510;-76
2023/03/25 10:14:12;;;;;;;9.75;4.78;;;;;;;29.44;18.11;94447.13;5003214;28;20424;-80
2023/03/25 10:16:40;;;;;;;9.32;5.45;;;;;;;30.16;18.01;94446.28;5000379;28;20114;-80
2023/03/25 10:19:38;;;;;;;9.07;4.85;;;;;;;29.59;18.61;94430.03;5004806;28;20049;-80
2023/03/25 10:22:08;;;;;;;10.48;5.43;;;;;;;29.14;18.89;94428.22;5002099;28;20053;-80
2023/03/25 10:24:45;;;;;;;11.77;5.30;;;;;;;29.29;18.90;94428.13;5005618;28;20493;-80
2023/03/25 10:27:34;;;;;;;9.70;5.40;;;;;;;29.82;18.36;94418.56;5006548;28;20022;-80
2023/03/25 10:30:08;;;;;;;8.43;4.88;;;;;;;30.46;17.34;94416.94;5005895;28;20077;-85
2023/03/25 10:32:46;;;;;;;10.48;3.70;;;;;;;31.44;17.15;94414.31;5007704;28;20467;-80
2023/03/25 10:35:19;;;;;;;5.95;3.47;;;;;;;31.36;16.24;94410.81;5005510;28;20025;-73
2023/03/25 10:37:46;;;;;;;7.13;4.32;;;;;;;31.45;16.77;94412.97;5020206;28;20042;-73
2023/03/25 10:40:32;;;;;;;11.13;3.95;;;;;;;32.05;16.04;94409.81;5004136;28;20038;-76
2023/03/25 10:43:22;;;;;;;6.72;4.25;;;;;;;32.54;15.86;94407.13;5005922;28;20110;-76
2023/03/25 10:45:49;;;;;;;6.72;4.15;;;;;;;32.54;16.02;94399.34;4988860;28;20096;-75
2023/03/25 10:48:21;;;;;;;5.38;3.97;;;;;;;34.55;14.40;94410.19;5010616;28;20029;-74
2023/03/25 10:50:49;;;;;;;5.43;4.00;;;;;;;36.73;13.06;94394.69;5023693;28;20033;-73
2023/03/25 10:53:21;;;;;;;6.28;3.50;;;;;;;38.80;12.12;94401.84;5008826;28;20111;-73
2023/03/25 10:55:51;;;;;;;;;;;;;;;37.74;13.31;94388.34;5006411;28;20038;-74
2023/03/25 10:58:17;;;;;;;4.68;3.47;;;;;;;36.14;14.20;94383.31;5025237;28;20003;-73
2023/03/25 11:00:44;;;;;;;5.93;3.58;;;;;;;35.02;14.03;94376.19;5023931;28;20508;-76
2023/03/25 11:03:20;;;;;;;8.77;3.90;;;;;;;36.12;13.42;94376.72;5008219;28;20794;-73
2023/03/25 11:05:47;;;;;;;7.97;3.42;;;;;;;36.88;12.38;94382.00;5024072;28;20049;-75
2023/03/25 11:08:14;;;;;;;6.82;3.05;;;;;;;37.39;11.92;94368.47;5024925;28;20534;-75
2023/03/25 11:10:39;;;;;;;6.68;3.65;;;;;;;37.51;11.83;94371.28;5024264;28;20029;-75
2023/03/25 11:13:11;;;;;;;5.03;3.30;;;;;;;36.72;11.95;94372.44;5023991;28;20022;-76
2023/03/25 11:15:38;;;;;;;5.45;3.38;;;;;;;36.14;12.61;94356.81;5025329;28;20144;-75
2023/03/25 11:18:03;;;;;;;4.30;3.20;;;;;;;36.89;12.02;94364.19;5024330;28;20037;-74
2023/03/25 11:20:40;;;;;;;7.57;3.15;;;;;;;36.04;11.66;94356.19;5024398;28;20083;-75
2023/03/25 11:23:21;;;;;;;6.10;4.43;;;;;;;34.75;13.33;94356.56;5026231;28;20061;-74
2023/03/25 11:25:47;;;;;;;5.88;2.60;;;;;;;34.55;13.24;94347.41;5023954;28;20380;-75
2023/03/25 11:28:26;;;;;;;7.32;3.40;;;;;;;35.78;12.19;94343.84;5008839;28;20091;-74
2023/03/25 11:31:29;;;;;;;4.70;2.92;;;;;;;35.93;12.22;94343.41;5023918;28;20025;-74
2023/03/25 11:34:05;;;;;;;;;;;;;;;35.46;12.90;94334.00;5024572;28;20052;-77
2023/03/25 11:36:34;;;;;;;8.75;3.10;;;;;;;35.96;12.39;94327.88;5007452;28;19913;-76